UTST

Termez Airport

Termez, Uzbekistan
TAF UTST 161700Z 1618/1718 VRB06KT 6000 NSC TX43/1711Z TEMPO 1618/1704 23016G26KT 3000 -DS SCT066CB SCT100
Issued Valid From Valid To
Jul-16 @ 17:00 UTC
(3 hours ago)
Jul-16 @ 18:00 UTC
(2 hours ago)
Jul-17 @ 18:00 UTC
(in 22 hours)
Jul-16 @ 18:00 to Jul-17 @ 18:00
TAF UTST 161700Z 1618/1718 VRB06KT 6000 NSC TX43/1711Z
Wind Visibility Clouds
Variable at 6 knots 6,003 meters
  • No significant clouds
Temporary Jul-16 @ 18:00 to Jul-17 @ 04:00
TEMPO 1618/1704 23016G26KT 3000 -DS SCT066CB SCT100
Wind Visibility Clouds Conditions
230° at 16 knots
 Gusting to 26 knots
2,993 meters
  • Scattered at 6,600' AGL
  • Scattered at 10,000' AGL
  • Light Duststorm
TAF UTST 161700Z 1618/1718 VRB06KT 6000 NSC TX43/1711Z TEMPO 1618/1704 23016G26KT 3000 -DS SCT066CB SCT100
Issued Jul-16 @ 17:00 UTC
(3 hours ago)
Valid From Jul-16 @ 18:00 UTC
(2 hours ago)
Valid To Jul-17 @ 18:00 UTC
(in 22 hours)
Jul-16 @ 18:00 - Jul-17 @ 18:00
Wind Visibility
Variable at 6 knots 6,003 meters
Clouds
  • No significant clouds
Temporary Jul-16 @ 18:00 - Jul-17 @ 04:00
Wind Visibility
230° at 16 knots
 Gusting to 26 knots
2,993 meters
Clouds
  • Scattered at 6,600' AGL
  • Scattered at 10,000' AGL
Conditions
  • Light Duststorm